SDA344 NZNS-NZWN
Flight info
| Callsign | SDA344 |
|---|---|
| Flight time | 0h 46m |
| Altitude | 7000 |
| Route | LUSRA H267 SIMZI |
| Aircraft | C208/L-SDFGR/C |
Departure
| Time | 2026-04-21 21:17 |
|---|---|
| Airport | Nelson Airport (NZNS) |
Arrival
| Time | 2026-04-21 22:03 |
|---|---|
| Airport | Wellington International Airport (NZWN) |
| Time | Latitude | Longitude | Altitude | Speed | Heading |
|---|---|---|---|---|---|
| 2026-04-21 21:03 | -41.29899 | 173.22441 | 31 ft | 0 kts | 36° |
| 2026-04-21 21:13 | -41.29870 | 173.22436 | 31 ft | 9 kts | 0° |
| 2026-04-21 21:13 | -41.29815 | 173.22488 | 31 ft | 9 kts | 39° |
| 2026-04-21 21:13 | -41.29757 | 173.22462 | 31 ft | 12 kts | 311° |
| 2026-04-21 21:13 | -41.29677 | 173.22423 | 31 ft | 17 kts | 41° |
| 2026-04-21 21:14 | -41.29570 | 173.22548 | 31 ft | 24 kts | 40° |
| 2026-04-21 21:14 | -41.29425 | 173.22713 | 31 ft | 27 kts | 42° |
| 2026-04-21 21:14 | -41.29303 | 173.22851 | 31 ft | 17 kts | 40° |
| 2026-04-21 21:14 | -41.29260 | 173.22941 | 31 ft | 9 kts | 37° |
| 2026-04-21 21:15 | -41.29260 | 173.22903 | 31 ft | 0 kts | 222° |
| 2026-04-21 21:16 | -41.29261 | 173.22901 | 31 ft | 2 kts | 221° |
| 2026-04-21 21:16 | -41.29414 | 173.22725 | 31 ft | 54 kts | 220° |
| 2026-04-21 21:16 | -41.29784 | 173.22296 | 124 ft | 75 kts | 221° |
| 2026-04-21 21:17 | -41.30137 | 173.21847 | 369 ft | 71 kts | 213° |
| 2026-04-21 21:17 | -41.30523 | 173.21394 | 556 ft | 81 kts | 212° |
| 2026-04-21 21:17 | -41.30996 | 173.20872 | 695 ft | 93 kts | 211° |
| 2026-04-21 21:17 | -41.31507 | 173.20331 | 939 ft | 97 kts | 210° |
| 2026-04-21 21:18 | -41.32064 | 173.19756 | 1120 ft | 105 kts | 212° |
| 2026-04-21 21:18 | -41.32627 | 173.19098 | 1327 ft | 110 kts | 214° |
| 2026-04-21 21:18 | -41.33206 | 173.18407 | 1512 ft | 115 kts | 214° |
| 2026-04-21 21:18 | -41.33810 | 173.17691 | 1742 ft | 115 kts | 214° |
| 2026-04-21 21:19 | -41.34405 | 173.17008 | 1973 ft | 115 kts | 213° |
| 2026-04-21 21:19 | -41.34860 | 173.16117 | 2201 ft | 130 kts | 255° |
| 2026-04-21 21:19 | -41.34503 | 173.14961 | 2421 ft | 147 kts | 313° |
| 2026-04-21 21:19 | -41.33555 | 173.14493 | 2648 ft | 149 kts | 5° |
| 2026-04-21 21:20 | -41.32536 | 173.14703 | 2882 ft | 148 kts | 16° |
| 2026-04-21 21:20 | -41.31524 | 173.15010 | 3101 ft | 149 kts | 18° |
| 2026-04-21 21:20 | -41.30514 | 173.15354 | 3321 ft | 151 kts | 19° |
| 2026-04-21 21:20 | -41.29536 | 173.15801 | 3542 ft | 145 kts | 40° |
| 2026-04-21 21:21 | -41.29008 | 173.16807 | 3774 ft | 127 kts | 91° |
| 2026-04-21 21:21 | -41.29094 | 173.17893 | 3990 ft | 114 kts | 115° |
| 2026-04-21 21:21 | -41.29304 | 173.18906 | 4222 ft | 113 kts | 114° |
| 2026-04-21 21:21 | -41.29468 | 173.19927 | 4461 ft | 112 kts | 111° |
| 2026-04-21 21:22 | -41.29592 | 173.20951 | 4713 ft | 112 kts | 109° |
| 2026-04-21 21:22 | -41.29692 | 173.21978 | 4965 ft | 113 kts | 108° |
| 2026-04-21 21:22 | -41.29784 | 173.23012 | 5190 ft | 115 kts | 108° |
| 2026-04-21 21:22 | -41.29873 | 173.24073 | 5403 ft | 116 kts | 107° |
| 2026-04-21 21:23 | -41.29957 | 173.25146 | 5641 ft | 117 kts | 107° |
| 2026-04-21 21:23 | -41.30037 | 173.26228 | 5877 ft | 119 kts | 107° |
| 2026-04-21 21:23 | -41.30123 | 173.27324 | 6098 ft | 119 kts | 107° |
| 2026-04-21 21:23 | -41.30204 | 173.28428 | 6339 ft | 121 kts | 106° |
| 2026-04-21 21:24 | -41.30284 | 173.29546 | 6556 ft | 122 kts | 107° |
| 2026-04-21 21:24 | -41.30366 | 173.30663 | 6752 ft | 120 kts | 107° |
| 2026-04-21 21:24 | -41.30449 | 173.31747 | 6911 ft | 117 kts | 105° |
| 2026-04-21 21:24 | -41.30510 | 173.32838 | 7040 ft | 119 kts | 106° |
| 2026-04-21 21:25 | -41.30587 | 173.33944 | 7072 ft | 121 kts | 107° |
| 2026-04-21 21:25 | -41.30676 | 173.35052 | 7101 ft | 121 kts | 107° |
| 2026-04-21 21:25 | -41.30762 | 173.36180 | 7146 ft | 126 kts | 106° |
| 2026-04-21 21:25 | -41.30831 | 173.37372 | 7162 ft | 132 kts | 103° |
| 2026-04-21 21:26 | -41.30869 | 173.38619 | 7162 ft | 136 kts | 102° |
| 2026-04-21 21:26 | -41.30910 | 173.39885 | 7154 ft | 138 kts | 101° |
| 2026-04-21 21:26 | -41.30925 | 173.41171 | 7159 ft | 140 kts | 98° |
| 2026-04-21 21:26 | -41.30925 | 173.42451 | 7153 ft | 140 kts | 100° |
| 2026-04-21 21:27 | -41.30864 | 173.43753 | 7109 ft | 139 kts | 100° |
| 2026-04-21 21:27 | -41.30933 | 173.45001 | 7118 ft | 134 kts | 107° |
| 2026-04-21 21:27 | -41.31003 | 173.46248 | 7099 ft | 138 kts | 105° |
| 2026-04-21 21:27 | -41.31070 | 173.47553 | 7034 ft | 142 kts | 104° |
| 2026-04-21 21:28 | -41.31112 | 173.48874 | 7016 ft | 143 kts | 103° |
| 2026-04-21 21:28 | -41.31150 | 173.50225 | 7024 ft | 149 kts | 102° |
| 2026-04-21 21:28 | -41.31190 | 173.53051 | 6981 ft | 154 kts | 99° |
| 2026-04-21 21:29 | -41.31193 | 173.54473 | 6939 ft | 154 kts | 101° |
| 2026-04-21 21:29 | -41.31212 | 173.55877 | 6895 ft | 151 kts | 101° |
| 2026-04-21 21:29 | -41.31283 | 173.57265 | 6859 ft | 149 kts | 103° |
| 2026-04-21 21:29 | -41.31301 | 173.58649 | 6910 ft | 145 kts | 100° |
| 2026-04-21 21:30 | -41.31279 | 173.59944 | 6979 ft | 135 kts | 98° |
| 2026-04-21 21:30 | -41.31285 | 173.61151 | 7027 ft | 129 kts | 102° |
| 2026-04-21 21:30 | -41.31313 | 173.62320 | 7083 ft | 129 kts | 104° |
| 2026-04-21 21:30 | -41.31361 | 173.63531 | 7133 ft | 133 kts | 103° |
| 2026-04-21 21:31 | -41.31406 | 173.64792 | 7091 ft | 140 kts | 103° |
| 2026-04-21 21:31 | -41.31453 | 173.66109 | 7064 ft | 146 kts | 103° |
| 2026-04-21 21:31 | -41.31498 | 173.67461 | 7017 ft | 147 kts | 102° |
| 2026-04-21 21:31 | -41.31533 | 173.68833 | 6975 ft | 150 kts | 103° |
| 2026-04-21 21:32 | -41.31570 | 173.70257 | 6943 ft | 156 kts | 101° |
| 2026-04-21 21:32 | -41.31590 | 173.71679 | 7077 ft | 154 kts | 101° |
| 2026-04-21 21:32 | -41.31616 | 173.73101 | 7133 ft | 154 kts | 102° |
| 2026-04-21 21:32 | -41.31655 | 173.74545 | 7150 ft | 156 kts | 101° |
| 2026-04-21 21:33 | -41.31685 | 173.75985 | 7148 ft | 154 kts | 101° |
| 2026-04-21 21:33 | -41.31719 | 173.77409 | 7142 ft | 152 kts | 102° |
| 2026-04-21 21:33 | -41.31744 | 173.78804 | 7133 ft | 150 kts | 102° |
| 2026-04-21 21:33 | -41.31762 | 173.80164 | 7100 ft | 148 kts | 102° |
| 2026-04-21 21:34 | -41.31787 | 173.81502 | 7094 ft | 142 kts | 103° |
| 2026-04-21 21:34 | -41.31831 | 173.82778 | 7074 ft | 135 kts | 103° |
| 2026-04-21 21:34 | -41.31843 | 173.84022 | 7087 ft | 134 kts | 102° |
| 2026-04-21 21:34 | -41.31849 | 173.85253 | 7124 ft | 133 kts | 102° |
| 2026-04-21 21:35 | -41.31869 | 173.86489 | 7138 ft | 134 kts | 103° |
| 2026-04-21 21:35 | -41.31903 | 173.87720 | 7145 ft | 134 kts | 103° |
| 2026-04-21 21:35 | -41.31938 | 173.88962 | 7141 ft | 135 kts | 103° |
| 2026-04-21 21:35 | -41.31963 | 173.90226 | 7184 ft | 140 kts | 103° |
| 2026-04-21 21:36 | -41.31998 | 173.91537 | 7119 ft | 142 kts | 103° |
| 2026-04-21 21:36 | -41.32031 | 173.92839 | 7105 ft | 141 kts | 103° |
| 2026-04-21 21:36 | -41.32057 | 173.94148 | 7150 ft | 143 kts | 102° |
| 2026-04-21 21:36 | -41.32134 | 173.95453 | 7167 ft | 137 kts | 120° |
| 2026-04-21 21:37 | -41.32779 | 173.96185 | 7164 ft | 124 kts | 161° |
| 2026-04-21 21:37 | -41.33615 | 173.96493 | 7167 ft | 126 kts | 168° |
| 2026-04-21 21:37 | -41.34480 | 173.96703 | 7155 ft | 126 kts | 170° |
| 2026-04-21 21:37 | -41.35348 | 173.96867 | 7151 ft | 125 kts | 172° |
| 2026-04-21 21:38 | -41.36185 | 173.97016 | 7259 ft | 119 kts | 172° |
| 2026-04-21 21:38 | -41.36984 | 173.97158 | 7459 ft | 115 kts | 172° |
| 2026-04-21 21:38 | -41.37741 | 173.97407 | 7645 ft | 113 kts | 152° |
| 2026-04-21 21:38 | -41.38345 | 173.98064 | 7858 ft | 114 kts | 135° |
| 2026-04-21 21:39 | -41.38792 | 173.98963 | 8086 ft | 118 kts | 130° |
| 2026-04-21 21:39 | -41.39206 | 173.99920 | 8291 ft | 120 kts | 129° |
| 2026-04-21 21:39 | -41.39563 | 174.00927 | 8486 ft | 122 kts | 128° |
| 2026-04-21 21:39 | -41.39852 | 174.01985 | 8660 ft | 120 kts | 126° |
| 2026-04-21 21:40 | -41.40130 | 174.03030 | 8886 ft | 120 kts | 127° |
| 2026-04-21 21:40 | -41.40418 | 174.04078 | 9035 ft | 123 kts | 127° |
| 2026-04-21 21:40 | -41.40730 | 174.05173 | 9105 ft | 130 kts | 127° |
| 2026-04-21 21:40 | -41.41078 | 174.06329 | 9138 ft | 137 kts | 127° |
| 2026-04-21 21:41 | -41.41449 | 174.07515 | 9151 ft | 140 kts | 127° |
| 2026-04-21 21:41 | -41.41821 | 174.08726 | 9155 ft | 145 kts | 121° |
| 2026-04-21 21:41 | -41.41812 | 174.10183 | 9156 ft | 165 kts | 97° |
| 2026-04-21 21:41 | -41.41580 | 174.11701 | 9155 ft | 177 kts | 79° |
| 2026-04-21 21:42 | -41.40840 | 174.13099 | 9163 ft | 188 kts | 63° |
| 2026-04-21 21:42 | -41.40011 | 174.14455 | 9164 ft | 189 kts | 61° |
| 2026-04-21 21:42 | -41.39135 | 174.15756 | 9162 ft | 192 kts | 56° |
| 2026-04-21 21:42 | -41.38196 | 174.17020 | 9163 ft | 192 kts | 56° |
| 2026-04-21 21:43 | -41.37258 | 174.18281 | 9163 ft | 190 kts | 56° |
| 2026-04-21 21:43 | -41.36329 | 174.19529 | 9164 ft | 188 kts | 56° |
| 2026-04-21 21:43 | -41.35413 | 174.20773 | 9162 ft | 188 kts | 56° |
| 2026-04-21 21:43 | -41.34500 | 174.22009 | 9164 ft | 187 kts | 57° |
| 2026-04-21 21:44 | -41.33585 | 174.23250 | 9164 ft | 187 kts | 56° |
| 2026-04-21 21:44 | -41.32673 | 174.24486 | 9164 ft | 187 kts | 57° |
| 2026-04-21 21:44 | -41.31763 | 174.25720 | 9166 ft | 187 kts | 57° |
| 2026-04-21 21:44 | -41.30853 | 174.26955 | 9164 ft | 187 kts | 57° |
| 2026-04-21 21:45 | -41.29943 | 174.28188 | 9157 ft | 187 kts | 57° |
| 2026-04-21 21:45 | -41.29037 | 174.29412 | 9156 ft | 184 kts | 57° |
| 2026-04-21 21:45 | -41.28140 | 174.30626 | 9156 ft | 184 kts | 57° |
| 2026-04-21 21:45 | -41.27247 | 174.31835 | 9154 ft | 183 kts | 57° |
| 2026-04-21 21:46 | -41.26357 | 174.33043 | 9155 ft | 183 kts | 57° |
| 2026-04-21 21:46 | -41.25470 | 174.34247 | 9156 ft | 181 kts | 57° |
| 2026-04-21 21:46 | -41.24588 | 174.35442 | 9155 ft | 181 kts | 57° |
| 2026-04-21 21:46 | -41.23716 | 174.36625 | 9154 ft | 181 kts | 57° |
| 2026-04-21 21:47 | -41.22834 | 174.37821 | 9156 ft | 181 kts | 57° |
| 2026-04-21 21:47 | -41.21950 | 174.39014 | 9155 ft | 181 kts | 57° |
| 2026-04-21 21:47 | -41.21065 | 174.40209 | 9154 ft | 181 kts | 57° |
| 2026-04-21 21:47 | -41.20181 | 174.41406 | 9157 ft | 181 kts | 57° |
| 2026-04-21 21:48 | -41.19302 | 174.42594 | 9156 ft | 179 kts | 59° |
| 2026-04-21 21:48 | -41.18651 | 174.43921 | 9101 ft | 167 kts | 84° |
| 2026-04-21 21:48 | -41.18308 | 174.45376 | 8850 ft | 165 kts | 85° |
| 2026-04-21 21:48 | -41.17906 | 174.46804 | 8597 ft | 165 kts | 83° |
| 2026-04-21 21:49 | -41.17487 | 174.48220 | 8345 ft | 165 kts | 83° |
| 2026-04-21 21:49 | -41.17077 | 174.49629 | 8092 ft | 162 kts | 84° |
| 2026-04-21 21:49 | -41.16679 | 174.51018 | 7839 ft | 160 kts | 84° |
| 2026-04-21 21:49 | -41.16291 | 174.52393 | 7588 ft | 159 kts | 85° |
| 2026-04-21 21:50 | -41.15915 | 174.53775 | 7342 ft | 160 kts | 85° |
| 2026-04-21 21:50 | -41.15529 | 174.55143 | 7096 ft | 160 kts | 83° |
| 2026-04-21 21:50 | -41.15138 | 174.56522 | 6846 ft | 160 kts | 84° |
| 2026-04-21 21:50 | -41.14747 | 174.57901 | 6596 ft | 161 kts | 84° |
| 2026-04-21 21:51 | -41.14356 | 174.59302 | 6344 ft | 163 kts | 84° |
| 2026-04-21 21:51 | -41.13963 | 174.60710 | 6095 ft | 163 kts | 84° |
| 2026-04-21 21:51 | -41.13568 | 174.62110 | 5844 ft | 160 kts | 84° |
| 2026-04-21 21:51 | -41.13171 | 174.63496 | 5594 ft | 162 kts | 83° |
| 2026-04-21 21:52 | -41.12777 | 174.64893 | 5345 ft | 162 kts | 84° |
| 2026-04-21 21:52 | -41.12390 | 174.66294 | 5095 ft | 162 kts | 84° |
| 2026-04-21 21:52 | -41.12000 | 174.67693 | 4843 ft | 160 kts | 83° |
| 2026-04-21 21:52 | -41.11691 | 174.69061 | 4585 ft | 147 kts | 98° |
| 2026-04-21 21:53 | -41.11747 | 174.70340 | 4334 ft | 137 kts | 110° |
| 2026-04-21 21:53 | -41.11809 | 174.71616 | 4084 ft | 141 kts | 107° |
| 2026-04-21 21:53 | -41.11846 | 174.72912 | 3833 ft | 141 kts | 106° |
| 2026-04-21 21:53 | -41.11885 | 174.74203 | 3586 ft | 143 kts | 105° |
| 2026-04-21 21:54 | -41.11932 | 174.75513 | 3337 ft | 143 kts | 105° |
| 2026-04-21 21:54 | -41.11990 | 174.76820 | 3088 ft | 141 kts | 105° |
| 2026-04-21 21:54 | -41.12041 | 174.78085 | 3054 ft | 131 kts | 105° |
| 2026-04-21 21:54 | -41.12076 | 174.79302 | 3114 ft | 134 kts | 105° |
| 2026-04-21 21:55 | -41.12141 | 174.80544 | 3140 ft | 134 kts | 113° |
| 2026-04-21 21:55 | -41.12576 | 174.81530 | 3154 ft | 122 kts | 146° |
| 2026-04-21 21:55 | -41.13332 | 174.81968 | 3156 ft | 121 kts | 173° |
| 2026-04-21 21:55 | -41.14171 | 174.81902 | 3144 ft | 120 kts | 183° |
| 2026-04-21 21:56 | -41.15008 | 174.81824 | 3167 ft | 121 kts | 180° |
| 2026-04-21 21:56 | -41.15850 | 174.81782 | 3178 ft | 122 kts | 181° |
| 2026-04-21 21:56 | -41.16718 | 174.81736 | 3061 ft | 128 kts | 181° |
| 2026-04-21 21:56 | -41.17570 | 174.81678 | 2865 ft | 113 kts | 182° |
| 2026-04-21 21:57 | -41.18302 | 174.81631 | 2693 ft | 100 kts | 180° |
| 2026-04-21 21:57 | -41.18994 | 174.81606 | 2570 ft | 100 kts | 181° |
| 2026-04-21 21:57 | -41.19672 | 174.81570 | 2434 ft | 98 kts | 182° |
| 2026-04-21 21:57 | -41.20354 | 174.81520 | 2334 ft | 100 kts | 182° |
| 2026-04-21 21:58 | -41.21055 | 174.81462 | 2164 ft | 100 kts | 182° |
| 2026-04-21 21:58 | -41.21748 | 174.81423 | 2009 ft | 99 kts | 181° |
| 2026-04-21 21:58 | -41.22423 | 174.81402 | 1830 ft | 95 kts | 185° |
| 2026-04-21 21:58 | -41.23065 | 174.81347 | 1718 ft | 91 kts | 187° |
| 2026-04-21 21:59 | -41.23496 | 174.81292 | 1679 ft | 95 kts | 187° |
| 2026-04-21 21:59 | -41.24166 | 174.81230 | 1625 ft | 102 kts | 183° |
| 2026-04-21 21:59 | -41.24905 | 174.81192 | 1444 ft | 105 kts | 184° |
| 2026-04-21 21:59 | -41.25617 | 174.81170 | 1268 ft | 99 kts | 182° |
| 2026-04-21 22:00 | -41.26276 | 174.81146 | 1133 ft | 91 kts | 185° |
| 2026-04-21 22:00 | -41.26879 | 174.81098 | 1021 ft | 81 kts | 185° |
| 2026-04-21 22:00 | -41.27403 | 174.81044 | 904 ft | 72 kts | 184° |
| 2026-04-21 22:00 | -41.27901 | 174.81020 | 823 ft | 70 kts | 183° |
| 2026-04-21 22:01 | -41.28360 | 174.80995 | 740 ft | 60 kts | 182° |
| 2026-04-21 22:01 | -41.28761 | 174.80990 | 645 ft | 55 kts | 186° |
| 2026-04-21 22:01 | -41.29146 | 174.80959 | 558 ft | 55 kts | 185° |
| 2026-04-21 22:01 | -41.29536 | 174.80916 | 521 ft | 58 kts | 186° |
| 2026-04-21 22:02 | -41.29943 | 174.80890 | 479 ft | 60 kts | 182° |
| 2026-04-21 22:02 | -41.30357 | 174.80842 | 401 ft | 59 kts | 181° |
| 2026-04-21 22:02 | -41.30760 | 174.80812 | 352 ft | 61 kts | 183° |
| 2026-04-21 22:02 | -41.31199 | 174.80789 | 236 ft | 61 kts | 181° |
| 2026-04-21 22:03 | -41.31610 | 174.80762 | 133 ft | 58 kts | 184° |
| 2026-04-21 22:03 | -41.32002 | 174.80735 | 51 ft | 51 kts | 183° |
| 2026-04-21 22:03 | -41.32289 | 174.80715 | 38 ft | 31 kts | 183° |
| 2026-04-21 22:03 | -41.32409 | 174.80736 | 34 ft | 13 kts | 90° |
| 2026-04-21 22:04 | -41.32430 | 174.80830 | 33 ft | 14 kts | 157° |
| 2026-04-21 22:04 | -41.32556 | 174.80826 | 28 ft | 22 kts | 182° |
| 2026-04-21 22:04 | -41.32732 | 174.80814 | 25 ft | 27 kts | 183° |
| 2026-04-21 22:04 | -41.32876 | 174.80804 | 25 ft | 15 kts | 182° |
| 2026-04-21 22:05 | -41.32974 | 174.80797 | 25 ft | 16 kts | 183° |
| 2026-04-21 22:05 | -41.33103 | 174.80789 | 25 ft | 18 kts | 183° |
| 2026-04-21 22:05 | -41.33200 | 174.80782 | 25 ft | 13 kts | 184° |
| 2026-04-21 22:05 | -41.33236 | 174.80874 | 25 ft | 17 kts | 92° |
| 2026-04-21 22:06 | -41.33247 | 174.81005 | 25 ft | 12 kts | 101° |
| 2026-04-21 22:06 | -41.33248 | 174.81083 | 28 ft | 9 kts | 66° |
| 2026-04-21 22:06 | -41.33183 | 174.81133 | 25 ft | 11 kts | 14° |
| 2026-04-21 22:06 | -41.33128 | 174.81138 | 25 ft | 7 kts | 341° |
| 2026-04-21 22:07 | -41.33116 | 174.81148 | 25 ft | 3 kts | 174° |
| 2026-04-21 22:07 | -41.33121 | 174.81148 | 25 ft | 0 kts | 180° |